Time;durP1;ratioP1;P1;durP2;ratioP2;P2;SDS_P1;SDS_P2;PMS_P1;PMS_P2;Temp;Humidity;BMP_temperature;BMP_pressure;BME280_temperature;BME280_humidity;BME280_pressure;Samples;Min_cycle;Max_cycle;Signal;HPM_P1;HPM_P2
2023/12/07 00:01:37;;;;;;;13.23;7.20;;;2.90;99.90;;;;;;5053516;28;20027;-80
2023/12/07 00:04:03;;;;;;;12.75;7.45;;;2.90;99.90;;;;;;5052802;28;20246;-80
2023/12/07 00:06:29;;;;;;;12.50;6.82;;;3.00;99.90;;;;;;5053645;28;20031;-80
2023/12/07 00:08:55;;;;;;;11.35;6.47;;;3.00;99.90;;;;;;5026712;28;20032;-80
2023/12/07 00:11:23;;;;;;;13.23;7.95;;;4.00;99.90;;;;;;5084093;28;20035;-80
2023/12/07 00:13:48;;;;;;;13.18;7.38;;;2.90;99.90;;;;;;5069338;28;20040;-80
2023/12/07 00:16:14;;;;;;;12.52;7.45;;;3.00;99.90;;;;;;5068994;28;20051;-80
2023/12/07 00:18:40;;;;;;;13.82;7.55;;;3.00;99.90;;;;;;5069639;28;20040;-80
2023/12/07 00:21:08;;;;;;;15.20;7.68;;;3.20;99.90;;;;;;5068997;28;20034;-80
2023/12/07 00:23:37;;;;;;;12.65;7.20;;;3.00;99.90;;;;;;5069595;28;20036;-80
2023/12/07 00:26:04;;;;;;;12.88;7.30;;;3.00;99.90;;;;;;5069099;28;20070;-80
2023/12/07 00:28:29;;;;;;;13.15;7.32;;;3.00;99.90;;;;;;5091500;28;20016;-80
2023/12/07 00:30:56;;;;;;;13.85;7.47;;;4.10;99.90;;;;;;5049567;28;20332;-80
2023/12/07 00:33:22;;;;;;;12.18;7.38;;;3.20;99.90;;;;;;5085323;28;20020;-80
2023/12/07 00:35:48;;;;;;;14.45;7.30;;;2.90;99.90;;;;;;5068944;28;20350;-80
2023/12/07 00:38:13;;;;;;;12.07;6.70;;;2.90;99.90;;;;;;5052543;28;20024;-80
2023/12/07 00:40:40;;;;;;;12.45;7.50;;;4.30;99.90;;;;;;5068355;28;20023;-80
2023/12/07 00:43:08;;;;;;;13.38;7.45;;;2.90;99.90;;;;;;5069089;28;20031;-80
2023/12/07 00:45:34;;;;;;;12.93;7.13;;;2.90;99.90;;;;;;5068963;28;20039;-80
2023/12/07 00:48:00;;;;;;;12.60;7.40;;;3.30;99.90;;;;;;5069078;28;20368;-80
2023/12/07 00:50:26;;;;;;;11.43;6.95;;;3.30;99.90;;;;;;5085140;28;20028;-80
2023/12/07 00:52:51;;;;;;;12.30;7.20;;;2.90;99.90;;;;;;5050780;28;20088;-80
2023/12/07 00:55:17;;;;;;;12.45;7.13;;;2.90;99.90;;;;;;5068924;28;20091;-80
2023/12/07 00:57:43;;;;;;;12.57;7.03;;;2.90;99.90;;;;;;5036006;28;20028;-80
2023/12/07 01:00:10;;;;;;;12.85;6.97;;;2.90;99.90;;;;;;5052276;28;20233;-80
2023/12/07 01:02:36;;;;;;;11.57;6.90;;;2.90;99.90;;;;;;5069026;28;20173;-80
2023/12/07 01:05:02;;;;;;;14.75;7.15;;;2.90;99.90;;;;;;5053397;28;20155;-80
2023/12/07 01:07:27;;;;;;;12.73;7.70;;;2.90;99.90;;;;;;5069403;28;20020;-80
2023/12/07 01:09:53;;;;;;;12.35;7.25;;;3.70;99.90;;;;;;5067520;28;20101;-80
2023/12/07 01:12:19;;;;;;;12.13;7.18;;;4.10;99.90;;;;;;5070315;28;20105;-80
2023/12/07 01:14:45;;;;;;;12.27;6.95;;;4.30;99.90;;;;;;5068566;28;20028;-80
2023/12/07 01:17:11;;;;;;;12.68;7.20;;;4.30;99.90;;;;;;5068428;28;20031;-80
2023/12/07 01:19:37;;;;;;;13.00;7.10;;;2.90;99.90;;;;;;5052858;28;20077;-79
2023/12/07 01:22:03;;;;;;;12.43;7.00;;;3.40;99.90;;;;;;5050603;28;20031;-80
2023/12/07 01:24:29;;;;;;;13.45;6.95;;;2.90;99.90;;;;;;5068409;28;20063;-80
2023/12/07 01:26:55;;;;;;;12.30;6.85;;;2.90;99.90;;;;;;5067947;28;20059;-80
2023/12/07 01:29:20;;;;;;;13.25;6.95;;;3.20;99.90;;;;;;5051625;28;20126;-80
2023/12/07 01:31:46;;;;;;;14.32;7.50;;;2.90;99.90;;;;;;5067805;28;20024;-80
2023/12/07 01:34:12;;;;;;;12.93;7.30;;;4.20;99.90;;;;;;5052077;28;20024;-80
2023/12/07 01:36:38;;;;;;;12.00;6.95;;;2.90;99.90;;;;;;5084805;28;20043;-80
2023/12/07 01:39:04;;;;;;;11.52;6.85;;;2.80;99.90;;;;;;5066482;28;20031;-80
2023/12/07 01:41:30;;;;;;;12.82;7.05;;;3.60;99.90;;;;;;5064189;28;20044;-80
2023/12/07 01:43:56;;;;;;;11.73;7.03;;;4.30;99.90;;;;;;5068398;28;20091;-80
2023/12/07 01:46:22;;;;;;;11.50;6.60;;;2.90;99.90;;;;;;5066504;28;20056;-79
2023/12/07 01:48:49;;;;;;;10.98;6.20;;;2.90;99.90;;;;;;5035557;28;20262;-80
2023/12/07 01:51:16;;;;;;;11.05;6.47;;;3.50;99.90;;;;;;5050786;28;20053;-80
2023/12/07 01:53:42;;;;;;;11.73;6.25;;;2.90;99.90;;;;;;5083275;28;20028;-80
2023/12/07 01:56:08;;;;;;;11.95;6.82;;;2.90;99.90;;;;;;5080915;28;20070;-80
2023/12/07 01:58:35;;;;;;;13.38;6.72;;;2.90;99.90;;;;;;5047672;28;20062;-80
2023/12/07 02:01:02;;;;;;;12.10;6.80;;;3.30;99.90;;;;;;5068542;28;20095;-80
2023/12/07 02:03:29;;;;;;;12.60;6.82;;;2.90;99.90;;;;;;5046799;28;20072;-80
2023/12/07 02:05:57;;;;;;;13.77;6.65;;;4.00;99.90;;;;;;5082703;28;20142;-80
2023/12/07 02:08:23;;;;;;;10.65;6.22;;;2.80;99.90;;;;;;5039663;28;20052;-80
2023/12/07 02:10:48;;;;;;;10.90;6.72;;;4.00;99.90;;;;;;5048107;28;20090;-80
2023/12/07 02:13:14;;;;;;;10.77;6.40;;;3.10;99.90;;;;;;5049250;28;20024;-80
2023/12/07 02:15:40;;;;;;;11.73;6.45;;;3.00;99.90;;;;;;5031024;28;20241;-80
2023/12/07 02:18:24;;;;;;;13.68;7.50;;;4.30;99.90;;;;;;5068059;28;20063;-79
2023/12/07 02:21:00;;;;;;;13.13;6.72;;;2.90;99.90;;;;;;5068248;28;20039;-80
2023/12/07 02:23:29;;;;;;;12.02;7.03;;;4.60;99.90;;;;;;5085820;28;20044;-80
2023/12/07 02:25:57;;;;;;;12.00;6.40;;;2.80;99.90;;;;;;5070562;28;20318;-79
2023/12/07 02:28:23;;;;;;;10.90;5.90;;;2.90;99.90;;;;;;5080825;28;20028;-80
2023/12/07 02:30:48;;;;;;;11.88;6.30;;;3.50;99.90;;;;;;5063515;28;20039;-79
2023/12/07 02:33:15;;;;;;;12.35;6.25;;;3.80;99.90;;;;;;5063767;28;20034;-80
2023/12/07 02:35:42;;;;;;;10.80;6.03;;;3.20;99.90;;;;;;5047139;28;20083;-79
2023/12/07 02:38:08;;;;;;;10.38;5.78;;;2.80;99.90;;;;;;5074099;28;20024;-80
2023/12/07 02:40:35;;;;;;;13.65;6.90;;;4.20;99.90;;;;;;5051670;28;20058;-80
2023/12/07 02:43:01;;;;;;;10.88;6.10;;;3.20;99.90;;;;;;5068185;28;20031;-80
2023/12/07 02:45:27;;;;;;;10.05;5.68;;;2.80;99.90;;;;;;5068680;28;20016;-79
2023/12/07 02:47:53;;;;;;;11.38;6.35;;;3.70;99.90;;;;;;5063484;28;20114;-80
2023/12/07 02:50:19;;;;;;;10.77;6.07;;;3.60;99.90;;;;;;5051412;28;20083;-79
2023/12/07 02:52:45;;;;;;;12.63;6.82;;;3.40;99.90;;;;;;5068658;28;20020;-80
2023/12/07 02:55:11;;;;;;;10.40;5.95;;;2.80;99.90;;;;;;5079699;28;20205;-80
2023/12/07 02:57:37;;;;;;;12.00;6.00;;;2.80;99.90;;;;;;5050509;28;20103;-80
2023/12/07 03:00:07;;;;;;;10.30;5.75;;;2.80;99.90;;;;;;5065613;28;20039;-80
2023/12/07 03:02:38;;;;;;;12.52;6.57;;;2.80;99.90;;;;;;5067660;28;20020;-80
2023/12/07 03:05:05;;;;;;;10.45;5.82;;;4.50;99.90;;;;;;5083142;28;20020;-80
2023/12/07 03:07:31;;;;;;;10.68;5.97;;;2.80;99.90;;;;;;5082166;28;20083;-79
2023/12/07 03:09:57;;;;;;;11.25;5.63;;;2.80;99.90;;;;;;5067609;28;20284;-80
2023/12/07 03:12:25;;;;;;;13.02;6.10;;;3.20;99.90;;;;;;5077062;28;20290;-80
2023/12/07 03:14:51;;;;;;;11.98;6.05;;;3.80;99.90;;;;;;5034623;28;20070;-80
2023/12/07 03:17:17;;;;;;;10.38;5.85;;;4.20;99.90;;;;;;5080848;28;20016;-80
2023/12/07 03:19:43;;;;;;;10.65;5.75;;;2.80;99.90;;;;;;5067661;28;20075;-80
2023/12/07 03:22:08;;;;;;;12.23;6.25;;;4.10;99.90;;;;;;5049782;28;20097;-80
2023/12/07 03:24:36;;;;;;;12.88;5.75;;;3.90;99.90;;;;;;5067293;28;20044;-79
2023/12/07 03:27:02;;;;;;;13.02;5.85;;;4.10;99.90;;;;;;5033503;28;20020;-79
2023/12/07 03:29:28;;;;;;;9.93;5.57;;;2.80;99.90;;;;;;5048897;28;20088;-80
2023/12/07 03:31:53;;;;;;;10.95;6.07;;;3.20;99.90;;;;;;5065389;28;20032;-79
2023/12/07 03:34:19;;;;;;;10.10;5.32;;;4.20;99.90;;;;;;5041570;28;20023;-80
2023/12/07 03:36:48;;;;;;;11.40;5.80;;;4.00;99.90;;;;;;5033209;28;20069;-80
2023/12/07 03:39:25;;;;;;;12.65;5.85;;;2.80;99.90;;;;;;5049849;28;20012;-80
2023/12/07 03:41:51;;;;;;;10.80;5.85;;;2.80;99.90;;;;;;5061711;28;20016;-80
2023/12/07 03:44:17;;;;;;;10.32;5.43;;;2.90;99.90;;;;;;5049172;28;20032;-79
2023/12/07 03:46:43;;;;;;;11.00;5.55;;;2.80;99.90;;;;;;5066040;28;20036;-79
2023/12/07 03:49:09;;;;;;;10.65;5.43;;;3.90;99.90;;;;;;5067327;28;20024;-80
2023/12/07 03:51:36;;;;;;;11.52;5.32;;;2.80;99.90;;;;;;5055559;28;20266;-80
2023/12/07 03:54:03;;;;;;;10.88;5.38;;;4.30;99.90;;;;;;5070088;28;20024;-80
2023/12/07 03:56:30;;;;;;;10.73;5.68;;;2.80;99.90;;;;;;5073282;28;20043;-79
2023/12/07 03:58:57;;;;;;;10.70;6.07;;;2.80;99.90;;;;;;5063155;28;20020;-80
2023/12/07 04:01:23;;;;;;;10.10;5.18;;;3.20;99.90;;;;;;5083789;28;20012;-80
2023/12/07 04:03:50;;;;;;;11.95;6.10;;;2.80;99.90;;;;;;5082061;28;20034;-80
2023/12/07 04:06:16;;;;;;;10.20;5.75;;;3.70;99.90;;;;;;5049830;28;20059;-80
2023/12/07 04:08:42;;;;;;;11.10;5.65;;;3.20;99.90;;;;;;5097445;28;20038;-80
2023/12/07 04:11:08;;;;;;;11.82;5.68;;;2.80;99.90;;;;;;5060663;28;20032;-80
2023/12/07 04:13:34;;;;;;;10.23;5.53;;;2.90;99.90;;;;;;5069152;28;20024;-80
2023/12/07 04:15:59;;;;;;;10.23;5.35;;;2.80;99.90;;;;;;5040424;28;20024;-80
2023/12/07 04:18:25;;;;;;;9.30;5.10;;;3.00;99.90;;;;;;5069557;28;20089;-80
2023/12/07 04:20:51;;;;;;;12.32;5.85;;;4.80;99.90;;;;;;5066402;28;20292;-80
2023/12/07 04:23:17;;;;;;;11.55;5.47;;;2.80;99.90;;;;;;5083799;28;20286;-79
2023/12/07 04:25:42;;;;;;;10.55;5.53;;;3.90;99.90;;;;;;5073336;28;20063;-80
2023/12/07 04:28:08;;;;;;;10.73;5.70;;;2.80;99.90;;;;;;5054569;28;20063;-80
2023/12/07 04:30:34;;;;;;;10.55;5.20;;;4.50;99.90;;;;;;5062782;28;20016;-80
2023/12/07 04:32:59;;;;;;;9.98;5.20;;;2.80;99.90;;;;;;5032595;28;20028;-80
2023/12/07 04:35:25;;;;;;;10.77;5.38;;;2.80;99.90;;;;;;5048208;28;20020;-80
2023/12/07 04:37:51;;;;;;;10.15;4.95;;;2.80;99.90;;;;;;5096857;28;20088;-80
2023/12/07 04:40:17;;;;;;;11.20;4.85;;;4.10;99.90;;;;;;5051913;28;20100;-79
2023/12/07 04:42:42;;;;;;;10.50;5.55;;;2.80;99.90;;;;;;5069976;28;20319;-79
2023/12/07 04:45:08;;;;;;;9.93;5.07;;;3.90;99.90;;;;;;5051556;28;20091;-80
2023/12/07 04:47:34;;;;;;;9.80;4.63;;;2.80;99.90;;;;;;5046894;28;20023;-80
2023/12/07 04:50:00;;;;;;;9.85;5.20;;;2.90;99.90;;;;;;5052539;28;20066;-80
2023/12/07 04:52:26;;;;;;;11.18;5.43;;;2.80;99.90;;;;;;5067953;28;20024;-80
2023/12/07 04:54:51;;;;;;;10.57;5.22;;;2.90;99.90;;;;;;5085024;28;20055;-80
2023/12/07 04:57:17;;;;;;;10.35;5.05;;;2.80;99.90;;;;;;5056659;28;20035;-80
2023/12/07 04:59:46;;;;;;;10.82;5.70;;;3.80;99.90;;;;;;5055606;28;20019;-80
2023/12/07 05:02:16;;;;;;;9.80;5.00;;;2.80;99.90;;;;;;5051456;28;20049;-80
2023/12/07 05:04:43;;;;;;;10.68;5.18;;;2.80;99.90;;;;;;5065915;28;20099;-79
2023/12/07 05:07:08;;;;;;;10.32;5.20;;;2.80;99.90;;;;;;5058878;28;20214;-80
2023/12/07 05:09:34;;;;;;;10.35;5.32;;;2.80;99.90;;;;;;5076375;28;20031;-80
2023/12/07 05:12:00;;;;;;;11.38;5.18;;;2.80;99.90;;;;;;5074126;28;20015;-80
2023/12/07 05:14:26;;;;;;;10.32;5.25;;;3.70;99.90;;;;;;5071518;28;20024;-80
2023/12/07 05:16:55;;;;;;;9.90;5.13;;;2.80;99.90;;;;;;5067856;28;20046;-80
2023/12/07 05:19:22;;;;;;;10.20;4.97;;;2.90;99.90;;;;;;5052928;28;20046;-80
2023/12/07 05:21:48;;;;;;;9.82;5.20;;;2.80;99.90;;;;;;5061211;28;20031;-80
2023/12/07 05:24:15;;;;;;;9.48;4.95;;;3.90;99.90;;;;;;5083712;28;20039;-80
2023/12/07 05:26:48;;;;;;;11.38;5.80;;;2.80;99.90;;;;;;5035512;28;20027;-80
2023/12/07 05:29:14;;;;;;;;;;;2.80;99.90;;;;;;5079408;28;20035;-80
2023/12/07 05:31:40;;;;;;;9.88;5.10;;;3.00;99.90;;;;;;5071692;28;19964;-80
2023/12/07 05:34:06;;;;;;;10.95;5.70;;;2.90;99.90;;;;;;5047040;28;20020;-80
2023/12/07 05:36:32;;;;;;;11.13;5.60;;;2.80;99.90;;;;;;5065921;28;20081;-80
2023/12/07 05:38:58;;;;;;;11.63;5.53;;;2.70;99.90;;;;;;5068582;28;20024;-80
2023/12/07 05:41:25;;;;;;;12.27;5.70;;;4.50;99.90;;;;;;5075686;28;20165;-80
2023/12/07 05:43:52;;;;;;;10.73;6.18;;;2.70;99.90;;;;;;5050805;28;20020;-80
2023/12/07 05:46:18;;;;;;;10.40;5.80;;;2.40;99.90;;;;;;5068455;28;20020;-80
2023/12/07 05:48:44;;;;;;;11.00;5.70;;;4.00;99.90;;;;;;5066462;28;20024;-80
2023/12/07 05:51:15;;;;;;;9.95;5.55;;;3.10;99.90;;;;;;5050769;28;20021;-80
2023/12/07 05:53:42;;;;;;;10.90;5.93;;;3.90;99.90;;;;;;5083985;28;20020;-80
2023/12/07 05:56:08;;;;;;;11.27;5.90;;;2.70;99.90;;;;;;5068508;28;20035;-80
2023/12/07 05:58:34;;;;;;;11.38;5.88;;;2.70;99.90;;;;;;5064721;28;20043;-80
2023/12/07 06:01:02;;;;;;;10.98;6.22;;;3.30;99.90;;;;;;5062219;28;20016;-80
2023/12/07 06:03:28;;;;;;;12.38;5.78;;;2.70;99.90;;;;;;5056871;28;20035;-79
2023/12/07 06:05:54;;;;;;;11.07;6.38;;;2.80;99.90;;;;;;5032859;28;20086;-79
2023/12/07 06:08:20;;;;;;;11.48;6.53;;;2.90;99.90;;;;;;5060957;28;20039;-79
2023/12/07 06:10:46;;;;;;;11.00;6.30;;;3.50;99.90;;;;;;5061570;28;20166;-80
2023/12/07 06:13:13;;;;;;;13.65;6.15;;;3.40;99.90;;;;;;5060778;28;20012;-79
2023/12/07 06:15:39;;;;;;;13.32;7.00;;;2.60;99.90;;;;;;5065810;28;20040;-79
2023/12/07 06:18:05;;;;;;;11.57;6.60;;;2.90;99.90;;;;;;5083923;28;20075;-79
2023/12/07 06:20:31;;;;;;;11.45;6.65;;;2.60;99.90;;;;;;5070167;28;20039;-79
2023/12/07 06:22:58;;;;;;;12.88;6.75;;;2.60;99.90;;;;;;5049660;28;20027;-79
2023/12/07 06:25:24;;;;;;;11.50;6.20;;;3.10;99.90;;;;;;5051216;28;20028;-80
2023/12/07 06:27:50;;;;;;;11.27;6.35;;;3.10;99.90;;;;;;5065884;28;20042;-79
2023/12/07 06:30:15;;;;;;;12.32;6.40;;;3.80;99.90;;;;;;5033222;28;20091;-79
2023/12/07 06:32:41;;;;;;;11.70;6.50;;;2.60;99.90;;;;;;5067371;28;20026;-79
2023/12/07 06:35:08;;;;;;;14.65;6.97;;;2.60;99.90;;;;;;5084357;28;20052;-79
2023/12/07 06:37:33;;;;;;;11.15;6.50;;;2.60;99.90;;;;;;5033829;28;20080;-80
2023/12/07 06:40:00;;;;;;;12.50;6.95;;;2.60;99.90;;;;;;5030037;28;20095;-79
2023/12/07 06:42:26;;;;;;;12.52;7.18;;;2.60;99.90;;;;;;5070087;28;20016;-80
2023/12/07 06:44:52;;;;;;;13.02;7.15;;;2.80;99.90;;;;;;5062283;28;20083;-80
2023/12/07 06:47:18;;;;;;;14.32;7.13;;;3.00;99.90;;;;;;5067610;28;20015;-79
2023/12/07 06:49:45;;;;;;;13.02;6.80;;;3.80;99.90;;;;;;5087929;28;20034;-80
2023/12/07 06:52:11;;;;;;;12.52;6.38;;;3.10;99.90;;;;;;5087495;28;20299;-79
2023/12/07 06:54:38;;;;;;;13.38;7.00;;;2.60;99.90;;;;;;5069638;28;20023;-79
2023/12/07 06:57:06;;;;;;;12.32;7.03;;;3.50;99.90;;;;;;5069638;28;20058;-79
2023/12/07 06:59:32;;;;;;;11.95;6.47;;;2.60;99.90;;;;;;5064488;28;20012;-79
2023/12/07 07:01:58;;;;;;;14.15;6.15;;;2.60;99.90;;;;;;5069606;28;20085;-79
2023/12/07 07:04:24;;;;;;;12.02;6.78;;;3.10;99.90;;;;;;5090183;28;20162;-80
2023/12/07 07:06:51;;;;;;;11.98;6.72;;;2.80;99.90;;;;;;5070635;28;20031;-79
2023/12/07 07:09:16;;;;;;;11.82;6.43;;;2.60;99.90;;;;;;5085501;28;20087;-79
2023/12/07 07:11:47;;;;;;;12.50;6.43;;;2.70;99.90;;;;;;5036720;28;20085;-79
2023/12/07 07:14:13;;;;;;;11.80;7.03;;;3.00;99.90;;;;;;5093670;28;20310;-80
2023/12/07 07:16:38;;;;;;;11.20;6.72;;;2.60;99.90;;;;;;5068572;28;20016;-81
2023/12/07 07:19:04;;;;;;;12.40;6.57;;;2.70;99.90;;;;;;5043773;28;20075;-80
2023/12/07 07:21:30;;;;;;;12.85;6.85;;;3.80;99.90;;;;;;5074539;28;20028;-80
2023/12/07 07:23:56;;;;;;;11.88;6.68;;;3.30;99.90;;;;;;5069084;28;20016;-80
2023/12/07 07:26:22;;;;;;;12.45;6.22;;;2.70;99.90;;;;;;5054144;28;20024;-81
2023/12/07 07:28:47;;;;;;;11.48;6.40;;;3.30;99.90;;;;;;5050616;28;20043;-81
2023/12/07 07:31:13;;;;;;;13.05;6.53;;;2.80;99.90;;;;;;5092610;28;20042;-80
2023/12/07 07:33:39;;;;;;;12.70;6.50;;;2.70;99.90;;;;;;5070235;28;20042;-80
2023/12/07 07:36:05;;;;;;;12.75;6.80;;;2.70;99.90;;;;;;5069526;28;20020;-80
2023/12/07 07:38:30;;;;;;;12.13;6.50;;;2.70;99.90;;;;;;5055798;28;20051;-80
2023/12/07 07:40:56;;;;;;;12.75;6.72;;;2.70;99.90;;;;;;5034812;28;20016;-80
2023/12/07 07:43:22;;;;;;;12.30;6.63;;;2.70;99.90;;;;;;5055087;28;20239;-80
2023/12/07 07:45:47;;;;;;;11.50;6.28;;;2.70;99.90;;;;;;5070646;28;20028;-80
2023/12/07 07:48:13;;;;;;;12.48;6.82;;;2.70;99.90;;;;;;5055093;28;20027;-80
2023/12/07 07:50:39;;;;;;;12.60;6.93;;;2.70;99.90;;;;;;5056312;28;20024;-80
2023/12/07 07:53:05;;;;;;;13.25;7.03;;;2.70;99.90;;;;;;5068992;28;20035;-81
2023/12/07 07:55:31;;;;;;;12.77;7.13;;;2.70;99.90;;;;;;5068442;28;20091;-81
2023/12/07 07:57:56;;;;;;;13.85;7.50;;;2.70;99.90;;;;;;5052298;28;20023;-80
2023/12/07 08:00:25;;;;;;;11.90;6.75;;;3.30;99.90;;;;;;5088687;28;20026;-81
2023/12/07 08:02:51;;;;;;;13.50;7.45;;;3.30;99.90;;;;;;5082262;28;20071;-81
2023/12/07 08:05:18;;;;;;;13.27;6.68;;;2.80;99.90;;;;;;5045850;28;20976;-81
2023/12/07 08:07:43;;;;;;;12.45;6.70;;;2.80;99.90;;;;;;5034473;28;20138;-81
2023/12/07 08:10:09;;;;;;;11.55;6.47;;;2.80;99.90;;;;;;5032214;28;20040;-80
2023/12/07 08:12:36;;;;;;;14.55;7.32;;;2.80;99.90;;;;;;5066493;28;20043;-80
2023/12/07 08:15:02;;;;;;;14.52;7.95;;;2.80;99.90;;;;;;5046744;28;20035;-81
2023/12/07 08:17:27;;;;;;;14.45;7.88;;;2.80;99.90;;;;;;5035306;28;20081;-80
2023/12/07 08:19:53;;;;;;;15.73;7.63;;;3.30;99.90;;;;;;5066835;28;20141;-81
2023/12/07 08:22:20;;;;;;;13.95;7.60;;;3.70;99.90;;;;;;5048553;28;20059;-80
2023/12/07 08:24:46;;;;;;;14.43;8.48;;;3.20;99.90;;;;;;5051285;28;20026;-80
2023/12/07 08:27:11;;;;;;;13.57;7.75;;;2.90;99.90;;;;;;5059551;28;20039;-80
2023/12/07 08:29:37;;;;;;;13.90;7.55;;;3.10;99.90;;;;;;5064233;28;20035;-80
2023/12/07 08:32:03;;;;;;;14.40;7.68;;;2.90;99.90;;;;;;5066691;28;20031;-80
2023/12/07 08:34:29;;;;;;;14.98;7.30;;;2.90;99.90;;;;;;5065433;28;20023;-80
2023/12/07 08:36:55;;;;;;;16.05;8.40;;;2.90;99.90;;;;;;5064273;28;20416;-80
2023/12/07 08:39:21;;;;;;;13.30;7.38;;;3.00;99.90;;;;;;5064708;28;20240;-80
2023/12/07 08:41:46;;;;;;;13.45;8.02;;;2.90;99.90;;;;;;5061495;28;20024;-80
2023/12/07 08:44:12;;;;;;;14.25;8.02;;;3.00;99.90;;;;;;5077774;28;20031;-80
2023/12/07 08:46:38;;;;;;;12.52;6.90;;;3.00;99.90;;;;;;5047102;28;20066;-80
2023/12/07 08:49:04;;;;;;;12.90;7.20;;;3.00;99.90;;;;;;5052667;28;20031;-80
2023/12/07 08:51:30;;;;;;;13.00;7.38;;;3.50;99.90;;;;;;5060447;28;20110;-80
2023/12/07 08:53:55;;;;;;;14.02;7.88;;;3.60;99.90;;;;;;5063502;28;20047;-80
2023/12/07 08:56:21;;;;;;;13.55;7.50;;;3.10;99.90;;;;;;5065112;28;20181;-80
2023/12/07 08:58:47;;;;;;;14.23;7.80;;;3.00;99.90;;;;;;5051081;28;20030;-80
2023/12/07 09:01:13;;;;;;;15.27;7.53;;;3.10;99.90;;;;;;5062771;28;20059;-80
2023/12/07 09:03:39;;;;;;;13.70;7.70;;;3.00;99.90;;;;;;5063451;28;20201;-80
2023/12/07 09:06:06;;;;;;;15.55;8.20;;;3.00;99.90;;;;;;5069001;28;20066;-80
2023/12/07 09:08:32;;;;;;;14.93;8.35;;;3.00;99.90;;;;;;5081272;28;20356;-81
2023/12/07 09:10:57;;;;;;;18.48;9.55;;;3.00;99.90;;;;;;5082800;28;20030;-80
2023/12/07 09:13:23;;;;;;;16.65;10.15;;;3.00;99.90;;;;;;5080284;28;20027;-80
2023/12/07 09:15:49;;;;;;;16.02;9.43;;;3.00;99.90;;;;;;5063473;28;20024;-80
2023/12/07 09:18:14;;;;;;;16.25;9.50;;;3.00;99.90;;;;;;5059760;28;20265;-80
2023/12/07 09:20:45;;;;;;;16.20;9.68;;;3.10;99.90;;;;;;5045333;28;20056;-80
2023/12/07 09:23:12;;;;;;;17.25;10.75;;;3.10;99.90;;;;;;5075078;28;20024;-80
2023/12/07 09:25:39;;;;;;;16.42;9.77;;;3.10;99.90;;;;;;5059996;28;20028;-80
2023/12/07 09:28:05;;;;;;;16.88;10.13;;;3.10;99.90;;;;;;5062098;28;20069;-80
2023/12/07 09:30:30;;;;;;;19.73;11.23;;;3.20;99.90;;;;;;5043795;28;20024;-80
2023/12/07 09:32:56;;;;;;;17.05;10.70;;;3.20;99.90;;;;;;5028412;28;20270;-80
2023/12/07 09:35:22;;;;;;;18.45;11.60;;;3.20;99.90;;;;;;5059939;28;20131;-80
2023/12/07 09:37:51;;;;;;;18.13;11.30;;;3.20;99.90;;;;;;5043289;28;20084;-80
2023/12/07 09:40:19;;;;;;;18.25;11.35;;;3.20;99.90;;;;;;5077332;28;20025;-80
2023/12/07 09:42:46;;;;;;;18.65;11.25;;;3.30;99.90;;;;;;5061431;28;20218;-80
2023/12/07 09:45:12;;;;;;;17.13;11.00;;;3.30;99.90;;;;;;5076187;28;20062;-82
2023/12/07 09:47:39;;;;;;;19.90;11.82;;;3.30;99.90;;;;;;5074125;28;20021;-80
2023/12/07 09:50:07;;;;;;;18.08;11.10;;;3.30;99.90;;;;;;5049779;28;20020;-80
2023/12/07 09:52:33;;;;;;;20.92;11.95;;;5.40;99.90;;;;;;5066597;28;20030;-80
2023/12/07 09:55:01;;;;;;;19.35;11.68;;;3.30;99.90;;;;;;5064670;28;20109;-80
2023/12/07 09:57:28;;;;;;;19.88;12.20;;;3.30;99.90;;;;;;5079051;28;20270;-80
2023/12/07 09:59:55;;;;;;;17.95;11.55;;;3.40;99.90;;;;;;5064094;28;20044;-80
2023/12/07 10:02:22;;;;;;;18.02;11.48;;;3.70;99.90;;;;;;5046560;28;20060;-80
2023/12/07 10:04:48;;;;;;;20.75;12.23;;;4.00;99.90;;;;;;5063647;28;20274;-80
2023/12/07 10:07:14;;;;;;;16.55;11.10;;;3.40;99.90;;;;;;5045167;28;20379;-80
2023/12/07 10:09:40;;;;;;;17.15;11.18;;;3.40;99.90;;;;;;5049164;28;20024;-81
2023/12/07 10:12:06;;;;;;;18.77;11.88;;;3.40;99.90;;;;;;5063000;28;20025;-80
2023/12/07 10:14:33;;;;;;;19.55;11.85;;;3.40;99.90;;;;;;5098205;28;20039;-80
2023/12/07 10:17:00;;;;;;;17.85;11.45;;;3.30;99.90;;;;;;5064594;28;20086;-81
2023/12/07 10:19:27;;;;;;;18.33;11.10;;;3.40;99.90;;;;;;5081630;28;20070;-81
2023/12/07 10:21:53;;;;;;;17.75;10.85;;;3.40;99.90;;;;;;5064465;28;20036;-80
2023/12/07 10:24:21;;;;;;;18.50;11.68;;;3.40;99.90;;;;;;5063634;28;20159;-80
2023/12/07 10:26:48;;;;;;;18.38;11.45;;;3.40;99.90;;;;;;5065102;28;20287;-80
2023/12/07 10:29:14;;;;;;;19.08;12.18;;;3.40;99.90;;;;;;5081178;28;20012;-80
2023/12/07 10:31:40;;;;;;;18.45;11.27;;;3.50;99.90;;;;;;5063818;28;21164;-80
2023/12/07 10:34:06;;;;;;;17.65;11.13;;;3.50;99.90;;;;;;5064225;28;20337;-80
2023/12/07 10:36:35;;;;;;;18.88;11.10;;;3.50;99.90;;;;;;5042739;28;20117;-80
2023/12/07 10:39:00;;;;;;;17.60;10.52;;;3.60;99.90;;;;;;5043255;28;20186;-80
2023/12/07 10:41:26;;;;;;;16.90;10.25;;;3.60;99.90;;;;;;5047951;28;20061;-80
2023/12/07 10:43:54;;;;;;;16.48;10.73;;;3.80;99.90;;;;;;5080174;28;20063;-80
2023/12/07 10:46:21;;;;;;;18.38;10.90;;;3.70;99.90;;;;;;5062652;28;20015;-80
2023/12/07 10:48:58;;;;;;;17.63;10.40;;;3.70;99.90;;;;;;5080414;28;20036;-80
2023/12/07 10:51:29;;;;;;;17.77;10.10;;;3.80;99.90;;;;;;5068476;28;20254;-80
2023/12/07 10:53:58;;;;;;;17.05;10.27;;;3.80;99.90;;;;;;5064852;28;20016;-80
2023/12/07 10:56:45;;;;;;;17.25;9.95;;;3.90;99.90;;;;;;5063367;28;20321;-80
2023/12/07 10:59:15;;;;;;;17.90;10.80;;;3.90;99.90;;;;;;5078601;28;20020;-80
2023/12/07 11:01:42;;;;;;;18.02;10.13;;;4.10;99.90;;;;;;5063283;28;20012;-80
2023/12/07 11:04:14;;;;;;;16.33;10.38;;;4.00;99.90;;;;;;5065100;28;20127;-80
2023/12/07 11:06:42;;;;;;;15.30;9.10;;;4.00;99.90;;;;;;5081401;28;20209;-80
2023/12/07 11:09:12;;;;;;;15.32;9.63;;;4.10;99.90;;;;;;5078065;28;21019;-80
2023/12/07 11:11:47;;;;;;;18.30;10.18;;;4.10;99.90;;;;;;5064894;28;20086;-81
2023/12/07 11:14:16;;;;;;;16.60;9.88;;;4.10;99.90;;;;;;5079352;28;20016;-80
2023/12/07 11:16:48;;;;;;;15.00;9.63;;;4.20;99.90;;;;;;5080680;28;20025;-80
2023/12/07 11:19:32;;;;;;;15.23;9.45;;;4.20;99.90;;;;;;5062600;28;20064;-80
2023/12/07 11:22:02;;;;;;;15.52;9.55;;;4.30;99.90;;;;;;5079254;28;20112;-80
2023/12/07 11:24:28;;;;;;;15.00;9.35;;;4.30;99.90;;;;;;5062936;28;20033;-80
2023/12/07 11:26:55;;;;;;;15.07;9.50;;;4.40;99.90;;;;;;5064053;28;20035;-80
2023/12/07 11:29:23;;;;;;;16.42;8.68;;;4.40;99.90;;;;;;5080643;28;20308;-81
2023/12/07 11:31:50;;;;;;;15.75;9.40;;;4.50;99.90;;;;;;5078547;28;20088;-80
2023/12/07 11:34:37;;;;;;;15.27;8.70;;;4.50;99.90;;;;;;5045130;28;20132;-80
2023/12/07 11:37:03;;;;;;;15.00;8.98;;;4.50;99.90;;;;;;5060677;28;20039;-80
2023/12/07 11:39:34;;;;;;;14.43;8.40;;;4.50;99.90;;;;;;5061125;28;20025;-80
2023/12/07 11:42:10;;;;;;;13.80;8.13;;;4.50;99.90;;;;;;5059333;28;20055;-80
2023/12/07 11:44:41;;;;;;;15.60;8.65;;;4.60;99.90;;;;;;5062321;28;20013;-80
2023/12/07 11:47:08;;;;;;;15.27;8.52;;;4.60;99.90;;;;;;5062571;28;20162;-80
2023/12/07 11:49:34;;;;;;;14.98;8.70;;;5.30;99.90;;;;;;5049398;28;20025;-80
2023/12/07 11:52:01;;;;;;;14.98;8.75;;;4.70;99.90;;;;;;5076583;28;20059;-80
2023/12/07 11:54:27;;;;;;;15.30;8.40;;;4.70;99.90;;;;;;5064032;28;20021;-80
2023/12/07 11:56:57;;;;;;;13.60;8.15;;;4.70;99.90;;;;;;5062486;28;20024;-80
2023/12/07 11:59:26;;;;;;;17.00;8.75;;;4.70;99.90;;;;;;5061530;28;20024;-80
2023/12/07 12:01:52;;;;;;;15.27;7.97;;;5.10;99.90;;;;;;5047524;28;20285;-80
2023/12/07 12:04:18;;;;;;;16.98;8.15;;;4.70;99.90;;;;;;5079780;28;20020;-80
2023/12/07 12:06:45;;;;;;;14.30;7.90;;;4.80;99.90;;;;;;5046122;28;20154;-80
2023/12/07 12:09:17;;;;;;;15.48;8.10;;;4.70;99.90;;;;;;5045791;28;21240;-80
2023/12/07 12:11:47;;;;;;;14.52;8.57;;;4.70;99.90;;;;;;5061762;28;20024;-80
2023/12/07 12:14:16;;;;;;;13.02;8.00;;;4.70;99.90;;;;;;5061516;28;20141;-80
2023/12/07 12:16:44;;;;;;;13.55;8.02;;;4.80;99.90;;;;;;5073127;28;20027;-80
2023/12/07 12:19:10;;;;;;;14.75;8.82;;;4.70;99.90;;;;;;5072636;28;20040;-80
2023/12/07 12:21:40;;;;;;;14.15;8.98;;;4.80;99.90;;;;;;5093256;28;20071;-80
2023/12/07 12:24:12;;;;;;;16.38;9.73;;;4.70;99.90;;;;;;5076723;28;20063;-80
2023/12/07 12:26:42;;;;;;;16.23;9.23;;;4.60;99.90;;;;;;5089930;28;20434;-80
2023/12/07 12:29:09;;;;;;;14.63;8.50;;;4.30;99.90;;;;;;5059596;28;20115;-80
2023/12/07 12:31:35;;;;;;;16.42;9.43;;;4.20;99.90;;;;;;5058974;28;20047;-80
2023/12/07 12:34:02;;;;;;;16.42;9.45;;;4.00;99.90;;;;;;5075475;28;20061;-80
2023/12/07 12:36:29;;;;;;;15.30;9.80;;;3.90;99.90;;;;;;5076470;28;20032;-80
2023/12/07 12:38:55;;;;;;;14.95;9.30;;;3.80;99.90;;;;;;5043474;28;20009;-80
2023/12/07 12:41:22;;;;;;;14.48;9.13;;;4.10;99.90;;;;;;5079914;28;20020;-80
2023/12/07 12:43:49;;;;;;;15.68;9.77;;;3.60;99.90;;;;;;5044551;28;20271;-80